Bear Branch, KY (41714)

8:07 AM EDT en Mayo 29, 2015 (GMT -0400)
KKYJACKS3 | | Change Station
CLOSE
Current Station
Estación meteorológica personal
Location: Talbert, KY
Altura: 994 ft
Estaciones meteorológicas cercanas

Alt 994 ft 37.41 °N, 83.42 °W | Updated 2 minutes ago

Muy nublado
Muy nublado
65.0 ° F
Sensación térmica 65.0 ° F
N
0.0
Viento Variable Viento desde Norte
Gusts 0.0 mph

Hoy
Alta -- | Baja -- ° F
--% Posibilidad de precipitaciones
Ayer
Alta -- | Baja -- ° F
Precip. -- pul
6:16 AM 8:46 PM
Gibosa creciente, 83% visible
Presión 30.25 pul
Visibilidad 2.5 Millas
Nubes Nublado 100 ft
Punto de rocío 63 ° F
Humedad 94%
Precipitaciones 0.00 pul
Espesor de la nieve No disponible.
UV 0 de una escala de 12
Polen 6.20 de una escala de 12
Calidad del aire No disponible.
Flu Activity Sporadic
METAR KI35 291155Z AUTO 00000KT 2 1/2SM OVC001 17/17 A3025 RMK AO1 VIS 1 1/4V4

More Conditions Fewer Conditions

Presión 30.25 pul
Visibilidad 2.5 Millas
Nubes Nublado 100 ft
Punto de rocío 63 ° F
Humedad 94%
Precipitaciones 0.00 pul
Espesor de la nieve No disponible.
UV 0 de una escala de 12
Polen 6.20 de una escala de 12
Calidad del aire No disponible.
Flu Activity Sporadic
METAR KI35 291155Z AUTO 00000KT 2 1/2SM OVC001 17/17 A3025 RMK AO1 VIS 1 1/4V4

More Conditions Fewer Conditions

10-Day Weather Forecast

Almanac

Astronomía

May. 29, 2015 Salida Puesta
Hora real
Crepúsculo civil
Crepúsculo náutico
Crepúsculo astronómico
Luna
Horas de luz
Horas de luz
Tomorrow will be .
, % of the Moon is Illuminated

Extremos de hoy

Máximos del estado Bajos del estado

Community

WunderPhotos

Upload Photos

1,825,248 ¡fotos cargadas!

WunderBlogs® & News

Nearby

Calidad del aire

  Calidad del aire Índice AQ Contaminante
Not available.

Grosos de nieve

Estación Profundido Altura

Actividad de terremotos

Ciudad Distance Mag. Tiempo y dato
Magnitud mínima muestra es 2,5.

Temperaturas de aguas costeras

Lugar Temperatura

Stations

Estaciones meteorológicas cercanas

Ubicación de la estación Temp. Vientos helados Punto de rocío Humedad Viento Precip. Alt Actualizado Tipo